CheckWX is a tool to help pilots better visualize weather data.  It is not intended as a substitute for an official pre-flight weather briefing.

05:23:22 UTC

KEVW TAF
Evanston-Uinta County Burns Field Airport
Evanston, Wyoming, USA
KEVW 200441Z 2005/2024 23012KT P6SM SCT025 OVC040 TEMPO 2005/2009 4SM -SHSN OVC025 FM201200 23014G22KT 3SM -SN SCT010 OVC020 FM202100 23011KT P6SM SCT010 BKN035

Feb-20@
05:00 UTC

Feb-20 @ 05:00 UTC

Feb-20@
12:00 UTC

Feb-20 @ 12:00 UTC

KEVW 200441Z 2005/2024 23012KT P6SM SCT025 OVC040
Wind
  • 230° at 12 KTS
Visibility
10,000+ meters
Cloud Levels
  • Scattered at 2,500' AGL
  • Overcast at 4,000' AGL

Feb-20@
05:00 UTC

Feb-20 @ 05:00 UTC

Feb-20@
09:00 UTC

Feb-20 @ 09:00 UTC

TEMPO 2005/2009 4SM -SHSN OVC025

Temporary

TemporaryChanges expected for less than half the time period

Visibility
6,437 meters
Conditions
Light Snow
Cloud Levels
  • Overcast at 2,500' AGL

Feb-20@
12:00 UTC

Feb-20 @ 12:00 UTC

Feb-20@
21:00 UTC

Feb-20 @ 21:00 UTC

FM201200 23014G22KT 3SM -SN SCT010 OVC020

From

FromStandard forecast or significant change

Wind
  • 230° at 14 KTS
  • {Gusting to 22 KTS
Visibility
4,828 meters
Conditions
Light Snow
Cloud Levels
  • Scattered at 1,000' AGL
  • Overcast at 2,000' AGL

Feb-20@
21:00 UTC

Feb-20 @ 21:00 UTC

Feb-21@
00:00 UTC

Feb-21 @ 00:00 UTC

FM202100 23011KT P6SM SCT010 BKN035

From

FromStandard forecast or significant change

Wind
  • 230° at 11 KTS
Visibility
10,000+ meters
Cloud Levels
  • Scattered at 1,000' AGL
  • Broken at 3,500' AGL